sensor_id;sensor_type;location;lat;lon;timestamp;P1;P2;P0
65012;PMS5003;51715;39.432;-77.518;2022-11-15T00:00:56;4;4;
65012;PMS5003;51715;39.432;-77.518;2022-11-15T00:03:25;3;3;
65012;PMS5003;51715;39.432;-77.518;2022-11-15T00:05:54;6;4;
65012;PMS5003;51715;39.432;-77.518;2022-11-15T00:08:29;6;6;
65012;PMS5003;51715;39.432;-77.518;2022-11-15T00:11:00;5;5;
65012;PMS5003;51715;39.432;-77.518;2022-11-15T00:13:29;7;5;
65012;PMS5003;51715;39.432;-77.518;2022-11-15T00:15:58;4;4;
65012;PMS5003;51715;39.432;-77.518;2022-11-15T00:18:27;5;4;
65012;PMS5003;51715;39.432;-77.518;2022-11-15T00:21:02;5;3;
65012;PMS5003;51715;39.432;-77.518;2022-11-15T00:23:32;4;3;
65012;PMS5003;51715;39.432;-77.518;2022-11-15T00:26:00;4;4;
65012;PMS5003;51715;39.432;-77.518;2022-11-15T00:28:30;4;3;
65012;PMS5003;51715;39.432;-77.518;2022-11-15T00:31:00;3;3;
65012;PMS5003;51715;39.432;-77.518;2022-11-15T00:33:31;5;3;
65012;PMS5003;51715;39.432;-77.518;2022-11-15T00:36:00;7;5;
65012;PMS5003;51715;39.432;-77.518;2022-11-15T00:38:31;4;4;
65012;PMS5003;51715;39.432;-77.518;2022-11-15T00:40:58;4;4;
65012;PMS5003;51715;39.432;-77.518;2022-11-15T00:43:28;7;5;
65012;PMS5003;51715;39.432;-77.518;2022-11-15T00:45:56;6;4;
65012;PMS5003;51715;39.432;-77.518;2022-11-15T00:48:25;4;4;
65012;PMS5003;51715;39.432;-77.518;2022-11-15T00:50:54;5;3;
65012;PMS5003;51715;39.432;-77.518;2022-11-15T00:53:23;4;4;
65012;PMS5003;51715;39.432;-77.518;2022-11-15T00:55:52;4;4;
65012;PMS5003;51715;39.432;-77.518;2022-11-15T00:58:21;4;4;
65012;PMS5003;51715;39.432;-77.518;2022-11-15T01:00:49;2;2;
65012;PMS5003;51715;39.432;-77.518;2022-11-15T01:03:17;4;4;
65012;PMS5003;51715;39.432;-77.518;2022-11-15T01:05:46;6;5;
65012;PMS5003;51715;39.432;-77.518;2022-11-15T01:08:14;5;4;
65012;PMS5003;51715;39.432;-77.518;2022-11-15T01:10:43;3;3;
65012;PMS5003;51715;39.432;-77.518;2022-11-15T01:13:11;6;4;
65012;PMS5003;51715;39.432;-77.518;2022-11-15T01:15:39;4;4;
65012;PMS5003;51715;39.432;-77.518;2022-11-15T01:18:09;4;3;
65012;PMS5003;51715;39.432;-77.518;2022-11-15T01:20:39;6;6;
65012;PMS5003;51715;39.432;-77.518;2022-11-15T01:23:09;4;3;
65012;PMS5003;51715;39.432;-77.518;2022-11-15T01:25:37;7;5;
65012;PMS5003;51715;39.432;-77.518;2022-11-15T01:28:06;3;3;
65012;PMS5003;51715;39.432;-77.518;2022-11-15T01:30:36;4;2;
65012;PMS5003;51715;39.432;-77.518;2022-11-15T01:33:05;5;3;
65012;PMS5003;51715;39.432;-77.518;2022-11-15T01:35:33;7;4;
65012;PMS5003;51715;39.432;-77.518;2022-11-15T01:38:05;5;5;
65012;PMS5003;51715;39.432;-77.518;2022-11-15T01:40:34;5;4;
65012;PMS5003;51715;39.432;-77.518;2022-11-15T01:43:20;4;3;
65012;PMS5003;51715;39.432;-77.518;2022-11-15T01:45:51;4;4;
65012;PMS5003;51715;39.432;-77.518;2022-11-15T01:48:23;5;3;
65012;PMS5003;51715;39.432;-77.518;2022-11-15T01:50:58;6;4;
65012;PMS5003;51715;39.432;-77.518;2022-11-15T01:53:30;3;3;
65012;PMS5003;51715;39.432;-77.518;2022-11-15T01:56:01;4;2;
65012;PMS5003;51715;39.432;-77.518;2022-11-15T01:58:31;4;4;
65012;PMS5003;51715;39.432;-77.518;2022-11-15T02:01:01;2;2;
65012;PMS5003;51715;39.432;-77.518;2022-11-15T02:03:31;2;2;
65012;PMS5003;51715;39.432;-77.518;2022-11-15T02:06:05;4;4;
65012;PMS5003;51715;39.432;-77.518;2022-11-15T02:08:35;4;4;
65012;PMS5003;51715;39.432;-77.518;2022-11-15T02:11:07;3;3;
65012;PMS5003;51715;39.432;-77.518;2022-11-15T02:13:37;4;4;
65012;PMS5003;51715;39.432;-77.518;2022-11-15T02:16:07;4;4;
65012;PMS5003;51715;39.432;-77.518;2022-11-15T02:18:44;5;5;
65012;PMS5003;51715;39.432;-77.518;2022-11-15T02:21:20;4;4;
65012;PMS5003;51715;39.432;-77.518;2022-11-15T02:24:02;4;3;
65012;PMS5003;51715;39.432;-77.518;2022-11-15T02:26:57;5;5;
65012;PMS5003;51715;39.432;-77.518;2022-11-15T02:31:51;2;2;
65012;PMS5003;51715;39.432;-77.518;2022-11-15T02:34:26;4;4;
65012;PMS5003;51715;39.432;-77.518;2022-11-15T02:37:03;3;3;
65012;PMS5003;51715;39.432;-77.518;2022-11-15T02:39:40;5;5;
65012;PMS5003;51715;39.432;-77.518;2022-11-15T02:42:17;4;4;
65012;PMS5003;51715;39.432;-77.518;2022-11-15T02:44:48;7;6;
65012;PMS5003;51715;39.432;-77.518;2022-11-15T02:47:19;4;3;
65012;PMS5003;51715;39.432;-77.518;2022-11-15T02:49:50;2;2;
65012;PMS5003;51715;39.432;-77.518;2022-11-15T02:52:21;6;3;
65012;PMS5003;51715;39.432;-77.518;2022-11-15T02:54:53;2;2;
65012;PMS5003;51715;39.432;-77.518;2022-11-15T02:57:26;2;2;
65012;PMS5003;51715;39.432;-77.518;2022-11-15T03:00:08;4;4;
65012;PMS5003;51715;39.432;-77.518;2022-11-15T03:02:42;4;3;
65012;PMS5003;51715;39.432;-77.518;2022-11-15T03:05:41;4;4;
65012;PMS5003;51715;39.432;-77.518;2022-11-15T03:08:19;2;2;
65012;PMS5003;51715;39.432;-77.518;2022-11-15T03:10:57;1;1;
65012;PMS5003;51715;39.432;-77.518;2022-11-15T03:13:35;3;3;
65012;PMS5003;51715;39.432;-77.518;2022-11-15T03:16:11;2;2;
65012;PMS5003;51715;39.432;-77.518;2022-11-15T03:18:47;3;3;
65012;PMS5003;51715;39.432;-77.518;2022-11-15T03:21:20;5;5;
65012;PMS5003;51715;39.432;-77.518;2022-11-15T03:23:51;2;2;
65012;PMS5003;51715;39.432;-77.518;2022-11-15T03:26:23;3;3;
65012;PMS5003;51715;39.432;-77.518;2022-11-15T03:28:52;2;1;
65012;PMS5003;51715;39.432;-77.518;2022-11-15T03:31:25;6;4;
65012;PMS5003;51715;39.432;-77.518;2022-11-15T03:33:57;2;2;
65012;PMS5003;51715;39.432;-77.518;2022-11-15T03:36:32;2;2;
65012;PMS5003;51715;39.432;-77.518;2022-11-15T03:39:03;2;2;
65012;PMS5003;51715;39.432;-77.518;2022-11-15T03:41:35;4;3;
65012;PMS5003;51715;39.432;-77.518;2022-11-15T03:44:11;2;2;
65012;PMS5003;51715;39.432;-77.518;2022-11-15T03:46:48;4;3;
65012;PMS5003;51715;39.432;-77.518;2022-11-15T03:49:25;3;3;
65012;PMS5003;51715;39.432;-77.518;2022-11-15T03:51:57;4;3;
65012;PMS5003;51715;39.432;-77.518;2022-11-15T03:54:28;3;3;
65012;PMS5003;51715;39.432;-77.518;2022-11-15T03:56:57;2;2;
65012;PMS5003;51715;39.432;-77.518;2022-11-15T03:59:25;5;3;
65012;PMS5003;51715;39.432;-77.518;2022-11-15T04:01:54;4;2;
65012;PMS5003;51715;39.432;-77.518;2022-11-15T04:04:22;4;3;
65012;PMS5003;51715;39.432;-77.518;2022-11-15T04:06:51;4;3;
65012;PMS5003;51715;39.432;-77.518;2022-11-15T04:09:18;2;2;
65012;PMS5003;51715;39.432;-77.518;2022-11-15T04:11:47;4;4;
65012;PMS5003;51715;39.432;-77.518;2022-11-15T04:14:16;3;3;
65012;PMS5003;51715;39.432;-77.518;2022-11-15T04:16:44;2;2;
65012;PMS5003;51715;39.432;-77.518;2022-11-15T04:19:13;2;2;
65012;PMS5003;51715;39.432;-77.518;2022-11-15T04:21:42;6;4;
65012;PMS5003;51715;39.432;-77.518;2022-11-15T04:24:11;1;1;
65012;PMS5003;51715;39.432;-77.518;2022-11-15T04:26:39;2;2;
65012;PMS5003;51715;39.432;-77.518;2022-11-15T04:29:07;4;3;
65012;PMS5003;51715;39.432;-77.518;2022-11-15T04:31:35;8;6;
65012;PMS5003;51715;39.432;-77.518;2022-11-15T04:34:03;7;7;
65012;PMS5003;51715;39.432;-77.518;2022-11-15T04:36:31;8;7;
65012;PMS5003;51715;39.432;-77.518;2022-11-15T04:39:00;7;5;
65012;PMS5003;51715;39.432;-77.518;2022-11-15T04:41:28;4;4;
65012;PMS5003;51715;39.432;-77.518;2022-11-15T04:43:56;2;2;
65012;PMS5003;51715;39.432;-77.518;2022-11-15T04:46:26;4;4;
65012;PMS5003;51715;39.432;-77.518;2022-11-15T04:48:54;5;2;
65012;PMS5003;51715;39.432;-77.518;2022-11-15T04:51:23;4;4;
65012;PMS5003;51715;39.432;-77.518;2022-11-15T04:53:51;4;4;
65012;PMS5003;51715;39.432;-77.518;2022-11-15T04:56:20;4;4;
65012;PMS5003;51715;39.432;-77.518;2022-11-15T04:58:48;2;2;
65012;PMS5003;51715;39.432;-77.518;2022-11-15T05:03:53;3;3;
65012;PMS5003;51715;39.432;-77.518;2022-11-15T05:06:22;3;3;
65012;PMS5003;51715;39.432;-77.518;2022-11-15T05:08:51;2;2;
65012;PMS5003;51715;39.432;-77.518;2022-11-15T05:11:20;3;3;
65012;PMS5003;51715;39.432;-77.518;2022-11-15T05:13:49;4;4;
65012;PMS5003;51715;39.432;-77.518;2022-11-15T05:16:18;4;4;
65012;PMS5003;51715;39.432;-77.518;2022-11-15T05:18:46;4;4;
65012;PMS5003;51715;39.432;-77.518;2022-11-15T05:21:17;4;4;
65012;PMS5003;51715;39.432;-77.518;2022-11-15T05:23:45;3;3;
65012;PMS5003;51715;39.432;-77.518;2022-11-15T05:26:16;3;3;
65012;PMS5003;51715;39.432;-77.518;2022-11-15T05:28:46;4;4;
65012;PMS5003;51715;39.432;-77.518;2022-11-15T05:31:18;4;4;
65012;PMS5003;51715;39.432;-77.518;2022-11-15T05:33:46;4;4;
65012;PMS5003;51715;39.432;-77.518;2022-11-15T05:36:27;4;2;
65012;PMS5003;51715;39.432;-77.518;2022-11-15T05:39:00;3;3;
65012;PMS5003;51715;39.432;-77.518;2022-11-15T05:41:31;2;2;
65012;PMS5003;51715;39.432;-77.518;2022-11-15T05:44:03;3;3;
65012;PMS5003;51715;39.432;-77.518;2022-11-15T05:46:35;3;3;
65012;PMS5003;51715;39.432;-77.518;2022-11-15T05:49:06;5;5;
65012;PMS5003;51715;39.432;-77.518;2022-11-15T05:51:38;5;5;
65012;PMS5003;51715;39.432;-77.518;2022-11-15T05:54:08;6;5;
65012;PMS5003;51715;39.432;-77.518;2022-11-15T05:56:37;3;1;
65012;PMS5003;51715;39.432;-77.518;2022-11-15T05:59:05;7;5;
65012;PMS5003;51715;39.432;-77.518;2022-11-15T06:01:36;5;5;
65012;PMS5003;51715;39.432;-77.518;2022-11-15T06:04:05;6;4;
65012;PMS5003;51715;39.432;-77.518;2022-11-15T06:06:33;4;3;
65012;PMS5003;51715;39.432;-77.518;2022-11-15T06:09:02;4;4;
65012;PMS5003;51715;39.432;-77.518;2022-11-15T06:11:30;3;3;
65012;PMS5003;51715;39.432;-77.518;2022-11-15T06:13:58;2;2;
65012;PMS5003;51715;39.432;-77.518;2022-11-15T06:16:27;5;3;
65012;PMS5003;51715;39.432;-77.518;2022-11-15T06:18:56;5;4;
65012;PMS5003;51715;39.432;-77.518;2022-11-15T06:21:25;3;3;
65012;PMS5003;51715;39.432;-77.518;2022-11-15T06:23:54;3;3;
65012;PMS5003;51715;39.432;-77.518;2022-11-15T06:26:22;3;3;
65012;PMS5003;51715;39.432;-77.518;2022-11-15T06:28:51;3;3;
65012;PMS5003;51715;39.432;-77.518;2022-11-15T06:31:19;5;5;
65012;PMS5003;51715;39.432;-77.518;2022-11-15T06:33:47;8;7;
65012;PMS5003;51715;39.432;-77.518;2022-11-15T06:36:15;7;6;
65012;PMS5003;51715;39.432;-77.518;2022-11-15T06:38:44;9;8;
65012;PMS5003;51715;39.432;-77.518;2022-11-15T06:41:12;7;5;
65012;PMS5003;51715;39.432;-77.518;2022-11-15T06:43:42;9;7;
65012;PMS5003;51715;39.432;-77.518;2022-11-15T06:46:10;5;5;
65012;PMS5003;51715;39.432;-77.518;2022-11-15T06:48:38;5;5;
65012;PMS5003;51715;39.432;-77.518;2022-11-15T06:51:06;7;7;
65012;PMS5003;51715;39.432;-77.518;2022-11-15T06:53:34;6;5;
65012;PMS5003;51715;39.432;-77.518;2022-11-15T06:56:04;10;7;
65012;PMS5003;51715;39.432;-77.518;2022-11-15T06:58:33;5;5;
65012;PMS5003;51715;39.432;-77.518;2022-11-15T07:01:01;8;7;
65012;PMS5003;51715;39.432;-77.518;2022-11-15T07:03:34;8;7;
65012;PMS5003;51715;39.432;-77.518;2022-11-15T07:06:04;8;6;
65012;PMS5003;51715;39.432;-77.518;2022-11-15T07:08:33;5;5;
65012;PMS5003;51715;39.432;-77.518;2022-11-15T07:11:03;5;5;
65012;PMS5003;51715;39.432;-77.518;2022-11-15T07:13:33;7;6;
65012;PMS5003;51715;39.432;-77.518;2022-11-15T07:16:03;6;5;
65012;PMS5003;51715;39.432;-77.518;2022-11-15T07:18:33;3;3;
65012;PMS5003;51715;39.432;-77.518;2022-11-15T07:21:02;6;6;
65012;PMS5003;51715;39.432;-77.518;2022-11-15T07:23:31;5;5;
65012;PMS5003;51715;39.432;-77.518;2022-11-15T07:25:59;8;4;
65012;PMS5003;51715;39.432;-77.518;2022-11-15T07:28:27;4;4;
65012;PMS5003;51715;39.432;-77.518;2022-11-15T07:30:56;4;3;
65012;PMS5003;51715;39.432;-77.518;2022-11-15T07:33:24;3;3;
65012;PMS5003;51715;39.432;-77.518;2022-11-15T07:35:52;4;4;
65012;PMS5003;51715;39.432;-77.518;2022-11-15T07:38:21;3;3;
65012;PMS5003;51715;39.432;-77.518;2022-11-15T07:40:55;6;5;
65012;PMS5003;51715;39.432;-77.518;2022-11-15T07:43:24;4;4;
65012;PMS5003;51715;39.432;-77.518;2022-11-15T07:45:52;5;5;
65012;PMS5003;51715;39.432;-77.518;2022-11-15T07:48:21;5;5;
65012;PMS5003;51715;39.432;-77.518;2022-11-15T07:50:51;7;6;
65012;PMS5003;51715;39.432;-77.518;2022-11-15T07:53:19;6;6;
65012;PMS5003;51715;39.432;-77.518;2022-11-15T07:55:47;6;4;
65012;PMS5003;51715;39.432;-77.518;2022-11-15T07:58:15;5;5;
65012;PMS5003;51715;39.432;-77.518;2022-11-15T08:00:43;7;6;
65012;PMS5003;51715;39.432;-77.518;2022-11-15T08:03:11;6;5;
65012;PMS5003;51715;39.432;-77.518;2022-11-15T08:05:41;5;5;
65012;PMS5003;51715;39.432;-77.518;2022-11-15T08:08:10;5;4;
65012;PMS5003;51715;39.432;-77.518;2022-11-15T08:10:38;4;4;
65012;PMS5003;51715;39.432;-77.518;2022-11-15T08:13:07;6;5;
65012;PMS5003;51715;39.432;-77.518;2022-11-15T08:15:37;3;3;
65012;PMS5003;51715;39.432;-77.518;2022-11-15T08:18:06;4;4;
65012;PMS5003;51715;39.432;-77.518;2022-11-15T08:20:37;5;5;
65012;PMS5003;51715;39.432;-77.518;2022-11-15T08:23:06;4;4;
65012;PMS5003;51715;39.432;-77.518;2022-11-15T08:25:36;5;5;
65012;PMS5003;51715;39.432;-77.518;2022-11-15T08:28:05;4;4;
65012;PMS5003;51715;39.432;-77.518;2022-11-15T08:30:35;7;7;
65012;PMS5003;51715;39.432;-77.518;2022-11-15T08:33:05;4;4;
65012;PMS5003;51715;39.432;-77.518;2022-11-15T08:35:36;4;4;
65012;PMS5003;51715;39.432;-77.518;2022-11-15T08:38:04;4;4;
65012;PMS5003;51715;39.432;-77.518;2022-11-15T08:40:34;4;4;
65012;PMS5003;51715;39.432;-77.518;2022-11-15T08:43:04;6;4;
65012;PMS5003;51715;39.432;-77.518;2022-11-15T08:45:33;5;5;
65012;PMS5003;51715;39.432;-77.518;2022-11-15T08:48:03;9;8;
65012;PMS5003;51715;39.432;-77.518;2022-11-15T08:50:31;6;6;
65012;PMS5003;51715;39.432;-77.518;2022-11-15T08:53:03;7;6;
65012;PMS5003;51715;39.432;-77.518;2022-11-15T08:55:35;5;5;
65012;PMS5003;51715;39.432;-77.518;2022-11-15T08:58:05;9;7;
65012;PMS5003;51715;39.432;-77.518;2022-11-15T09:00:33;10;5;
65012;PMS5003;51715;39.432;-77.518;2022-11-15T09:03:03;7;7;
65012;PMS5003;51715;39.432;-77.518;2022-11-15T09:05:32;6;5;
65012;PMS5003;51715;39.432;-77.518;2022-11-15T09:08:03;6;6;
65012;PMS5003;51715;39.432;-77.518;2022-11-15T09:10:32;6;6;
65012;PMS5003;51715;39.432;-77.518;2022-11-15T09:13:00;4;4;
65012;PMS5003;51715;39.432;-77.518;2022-11-15T09:15:28;5;5;
65012;PMS5003;51715;39.432;-77.518;2022-11-15T09:17:58;7;7;
65012;PMS5003;51715;39.432;-77.518;2022-11-15T09:20:26;8;8;
65012;PMS5003;51715;39.432;-77.518;2022-11-15T09:22:54;6;5;
65012;PMS5003;51715;39.432;-77.518;2022-11-15T09:25:25;7;7;
65012;PMS5003;51715;39.432;-77.518;2022-11-15T09:27:53;5;5;
65012;PMS5003;51715;39.432;-77.518;2022-11-15T09:30:22;6;5;
65012;PMS5003;51715;39.432;-77.518;2022-11-15T09:32:52;9;8;
65012;PMS5003;51715;39.432;-77.518;2022-11-15T09:35:21;8;8;
65012;PMS5003;51715;39.432;-77.518;2022-11-15T09:37:49;8;7;
65012;PMS5003;51715;39.432;-77.518;2022-11-15T09:40:17;9;7;
65012;PMS5003;51715;39.432;-77.518;2022-11-15T09:42:50;7;7;
65012;PMS5003;51715;39.432;-77.518;2022-11-15T09:45:28;8;7;
65012;PMS5003;51715;39.432;-77.518;2022-11-15T09:48:06;10;9;
65012;PMS5003;51715;39.432;-77.518;2022-11-15T09:50:53;10;8;
65012;PMS5003;51715;39.432;-77.518;2022-11-15T09:53:22;9;9;
65012;PMS5003;51715;39.432;-77.518;2022-11-15T09:55:58;10;10;
65012;PMS5003;51715;39.432;-77.518;2022-11-15T09:58:30;8;8;
65012;PMS5003;51715;39.432;-77.518;2022-11-15T10:01:06;11;11;
65012;PMS5003;51715;39.432;-77.518;2022-11-15T10:03:40;13;10;
65012;PMS5003;51715;39.432;-77.518;2022-11-15T10:06:10;11;11;
65012;PMS5003;51715;39.432;-77.518;2022-11-15T10:08:51;13;11;
65012;PMS5003;51715;39.432;-77.518;2022-11-15T10:11:25;9;9;
65012;PMS5003;51715;39.432;-77.518;2022-11-15T10:13:56;15;10;
65012;PMS5003;51715;39.432;-77.518;2022-11-15T10:16:42;12;12;
65012;PMS5003;51715;39.432;-77.518;2022-11-15T10:19:26;12;12;
65012;PMS5003;51715;39.432;-77.518;2022-11-15T10:22:04;13;12;
65012;PMS5003;51715;39.432;-77.518;2022-11-15T10:24:45;11;11;
65012;PMS5003;51715;39.432;-77.518;2022-11-15T10:27:15;12;12;
65012;PMS5003;51715;39.432;-77.518;2022-11-15T10:29:45;10;10;
65012;PMS5003;51715;39.432;-77.518;2022-11-15T10:32:15;16;13;
65012;PMS5003;51715;39.432;-77.518;2022-11-15T10:34:44;15;15;
65012;PMS5003;51715;39.432;-77.518;2022-11-15T10:37:14;16;13;
65012;PMS5003;51715;39.432;-77.518;2022-11-15T10:40:03;16;14;
65012;PMS5003;51715;39.432;-77.518;2022-11-15T10:42:32;14;11;
65012;PMS5003;51715;39.432;-77.518;2022-11-15T10:45:00;12;12;
65012;PMS5003;51715;39.432;-77.518;2022-11-15T10:47:28;11;10;
65012;PMS5003;51715;39.432;-77.518;2022-11-15T10:49:59;12;9;
65012;PMS5003;51715;39.432;-77.518;2022-11-15T10:52:33;14;13;
65012;PMS5003;51715;39.432;-77.518;2022-11-15T10:55:05;15;14;
65012;PMS5003;51715;39.432;-77.518;2022-11-15T10:57:50;11;8;
65012;PMS5003;51715;39.432;-77.518;2022-11-15T11:00:27;13;13;
65012;PMS5003;51715;39.432;-77.518;2022-11-15T11:02:59;11;11;
65012;PMS5003;51715;39.432;-77.518;2022-11-15T11:05:30;17;16;
65012;PMS5003;51715;39.432;-77.518;2022-11-15T11:08:03;15;14;
65012;PMS5003;51715;39.432;-77.518;2022-11-15T11:10:32;17;17;
65012;PMS5003;51715;39.432;-77.518;2022-11-15T11:13:12;16;14;
65012;PMS5003;51715;39.432;-77.518;2022-11-15T11:15:51;14;11;
65012;PMS5003;51715;39.432;-77.518;2022-11-15T11:18:27;20;18;
65012;PMS5003;51715;39.432;-77.518;2022-11-15T11:21:02;14;14;
65012;PMS5003;51715;39.432;-77.518;2022-11-15T11:23:44;17;14;
65012;PMS5003;51715;39.432;-77.518;2022-11-15T11:26:25;14;12;
65012;PMS5003;51715;39.432;-77.518;2022-11-15T11:29:04;9;9;
65012;PMS5003;51715;39.432;-77.518;2022-11-15T11:31:45;13;13;
65012;PMS5003;51715;39.432;-77.518;2022-11-15T11:34:26;17;14;
65012;PMS5003;51715;39.432;-77.518;2022-11-15T11:37:09;17;17;
65012;PMS5003;51715;39.432;-77.518;2022-11-15T11:39:46;17;16;
65012;PMS5003;51715;39.432;-77.518;2022-11-15T11:42:26;17;16;
65012;PMS5003;51715;39.432;-77.518;2022-11-15T11:45:03;14;11;
65012;PMS5003;51715;39.432;-77.518;2022-11-15T11:47:46;15;14;
65012;PMS5003;51715;39.432;-77.518;2022-11-15T11:50:18;14;14;
65012;PMS5003;51715;39.432;-77.518;2022-11-15T11:52:54;18;15;
65012;PMS5003;51715;39.432;-77.518;2022-11-15T11:55:29;17;15;
65012;PMS5003;51715;39.432;-77.518;2022-11-15T11:58:06;17;13;
65012;PMS5003;51715;39.432;-77.518;2022-11-15T12:00:43;18;18;
65012;PMS5003;51715;39.432;-77.518;2022-11-15T12:03:26;15;14;
65012;PMS5003;51715;39.432;-77.518;2022-11-15T12:06:02;15;14;
65012;PMS5003;51715;39.432;-77.518;2022-11-15T12:08:40;13;13;
65012;PMS5003;51715;39.432;-77.518;2022-11-15T12:11:16;19;15;
65012;PMS5003;51715;39.432;-77.518;2022-11-15T12:13:48;13;12;
65012;PMS5003;51715;39.432;-77.518;2022-11-15T12:16:27;15;15;
65012;PMS5003;51715;39.432;-77.518;2022-11-15T12:18:58;12;12;
65012;PMS5003;51715;39.432;-77.518;2022-11-15T12:21:31;15;13;
65012;PMS5003;51715;39.432;-77.518;2022-11-15T12:24:06;18;13;
65012;PMS5003;51715;39.432;-77.518;2022-11-15T12:26:40;14;13;
65012;PMS5003;51715;39.432;-77.518;2022-11-15T12:29:15;12;12;
65012;PMS5003;51715;39.432;-77.518;2022-11-15T12:31:48;12;12;
65012;PMS5003;51715;39.432;-77.518;2022-11-15T12:34:38;14;13;
65012;PMS5003;51715;39.432;-77.518;2022-11-15T12:37:47;15;14;
65012;PMS5003;51715;39.432;-77.518;2022-11-15T12:40:22;14;11;
65012;PMS5003;51715;39.432;-77.518;2022-11-15T12:40:24;14;11;
65012;PMS5003;51715;39.432;-77.518;2022-11-15T12:43:03;12;12;
65012;PMS5003;51715;39.432;-77.518;2022-11-15T12:44:00;12;12;
65012;PMS5003;51715;39.432;-77.518;2022-11-15T12:47:04;10;9;
65012;PMS5003;51715;39.432;-77.518;2022-11-15T12:49:55;12;11;
65012;PMS5003;51715;39.432;-77.518;2022-11-15T12:52:23;11;10;
65012;PMS5003;51715;39.432;-77.518;2022-11-15T12:54:54;10;10;
65012;PMS5003;51715;39.432;-77.518;2022-11-15T12:57:30;11;10;
65012;PMS5003;51715;39.432;-77.518;2022-11-15T13:00:02;14;13;
65012;PMS5003;51715;39.432;-77.518;2022-11-15T13:03:36;12;11;
65012;PMS5003;51715;39.432;-77.518;2022-11-15T13:06:40;11;11;
65012;PMS5003;51715;39.432;-77.518;2022-11-15T13:10:29;11;10;
65012;PMS5003;51715;39.432;-77.518;2022-11-15T13:13:00;13;11;
65012;PMS5003;51715;39.432;-77.518;2022-11-15T13:15:32;12;11;
65012;PMS5003;51715;39.432;-77.518;2022-11-15T13:18:28;13;13;
65012;PMS5003;51715;39.432;-77.518;2022-11-15T13:20:59;14;12;
65012;PMS5003;51715;39.432;-77.518;2022-11-15T13:23:27;14;13;
65012;PMS5003;51715;39.432;-77.518;2022-11-15T13:26:13;12;11;
65012;PMS5003;51715;39.432;-77.518;2022-11-15T13:28:43;12;12;
65012;PMS5003;51715;39.432;-77.518;2022-11-15T13:31:24;17;17;
65012;PMS5003;51715;39.432;-77.518;2022-11-15T13:33:56;17;16;
65012;PMS5003;51715;39.432;-77.518;2022-11-15T13:36:28;13;10;
65012;PMS5003;51715;39.432;-77.518;2022-11-15T13:39:00;9;9;
65012;PMS5003;51715;39.432;-77.518;2022-11-15T13:41:32;14;14;
65012;PMS5003;51715;39.432;-77.518;2022-11-15T13:44:03;12;12;
65012;PMS5003;51715;39.432;-77.518;2022-11-15T13:46:45;14;14;
65012;PMS5003;51715;39.432;-77.518;2022-11-15T13:49:13;18;13;
65012;PMS5003;51715;39.432;-77.518;2022-11-15T13:51:43;11;11;
65012;PMS5003;51715;39.432;-77.518;2022-11-15T13:54:16;12;10;
65012;PMS5003;51715;39.432;-77.518;2022-11-15T13:56:49;14;14;
65012;PMS5003;51715;39.432;-77.518;2022-11-15T13:59:20;13;13;
65012;PMS5003;51715;39.432;-77.518;2022-11-15T14:01:52;18;18;
65012;PMS5003;51715;39.432;-77.518;2022-11-15T14:04:22;11;10;
65012;PMS5003;51715;39.432;-77.518;2022-11-15T14:06:53;13;13;
65012;PMS5003;51715;39.432;-77.518;2022-11-15T14:09:39;11;11;
65012;PMS5003;51715;39.432;-77.518;2022-11-15T14:12:24;17;15;
65012;PMS5003;51715;39.432;-77.518;2022-11-15T14:14:56;15;12;
65012;PMS5003;51715;39.432;-77.518;2022-11-15T14:17:38;11;11;
65012;PMS5003;51715;39.432;-77.518;2022-11-15T14:20:38;13;12;
65012;PMS5003;51715;39.432;-77.518;2022-11-15T14:23:25;15;15;
65012;PMS5003;51715;39.432;-77.518;2022-11-15T14:25:55;15;13;
65012;PMS5003;51715;39.432;-77.518;2022-11-15T14:28:29;15;14;
65012;PMS5003;51715;39.432;-77.518;2022-11-15T14:30:59;14;13;
65012;PMS5003;51715;39.432;-77.518;2022-11-15T14:33:35;13;12;
65012;PMS5003;51715;39.432;-77.518;2022-11-15T14:36:05;14;14;
65012;PMS5003;51715;39.432;-77.518;2022-11-15T14:38:39;15;13;
65012;PMS5003;51715;39.432;-77.518;2022-11-15T14:41:10;15;13;
65012;PMS5003;51715;39.432;-77.518;2022-11-15T14:43:48;14;13;
65012;PMS5003;51715;39.432;-77.518;2022-11-15T14:46:17;14;13;
65012;PMS5003;51715;39.432;-77.518;2022-11-15T14:48:46;13;13;
65012;PMS5003;51715;39.432;-77.518;2022-11-15T14:51:15;15;13;
65012;PMS5003;51715;39.432;-77.518;2022-11-15T14:53:46;15;12;
65012;PMS5003;51715;39.432;-77.518;2022-11-15T14:56:15;16;16;
65012;PMS5003;51715;39.432;-77.518;2022-11-15T14:58:43;16;12;
65012;PMS5003;51715;39.432;-77.518;2022-11-15T15:01:14;16;13;
65012;PMS5003;51715;39.432;-77.518;2022-11-15T15:03:46;15;14;
65012;PMS5003;51715;39.432;-77.518;2022-11-15T15:06:15;13;12;
65012;PMS5003;51715;39.432;-77.518;2022-11-15T15:08:43;12;11;
65012;PMS5003;51715;39.432;-77.518;2022-11-15T15:11:14;11;10;
65012;PMS5003;51715;39.432;-77.518;2022-11-15T15:13:45;13;13;
65012;PMS5003;51715;39.432;-77.518;2022-11-15T15:16:14;15;12;
65012;PMS5003;51715;39.432;-77.518;2022-11-15T15:18:43;9;9;
65012;PMS5003;51715;39.432;-77.518;2022-11-15T15:21:16;26;24;
65012;PMS5003;51715;39.432;-77.518;2022-11-15T15:23:48;18;17;
65012;PMS5003;51715;39.432;-77.518;2022-11-15T15:26:17;16;12;
65012;PMS5003;51715;39.432;-77.518;2022-11-15T15:28:46;11;11;
65012;PMS5003;51715;39.432;-77.518;2022-11-15T15:31:14;16;15;
65012;PMS5003;51715;39.432;-77.518;2022-11-15T15:33:43;13;13;
65012;PMS5003;51715;39.432;-77.518;2022-11-15T15:36:16;11;10;
65012;PMS5003;51715;39.432;-77.518;2022-11-15T15:38:45;17;12;
65012;PMS5003;51715;39.432;-77.518;2022-11-15T15:41:14;14;14;
65012;PMS5003;51715;39.432;-77.518;2022-11-15T15:43:43;16;15;
65012;PMS5003;51715;39.432;-77.518;2022-11-15T15:46:13;13;11;
65012;PMS5003;51715;39.432;-77.518;2022-11-15T15:48:45;9;8;
65012;PMS5003;51715;39.432;-77.518;2022-11-15T15:51:14;15;15;
65012;PMS5003;51715;39.432;-77.518;2022-11-15T15:53:42;12;11;
65012;PMS5003;51715;39.432;-77.518;2022-11-15T15:56:11;15;13;
65012;PMS5003;51715;39.432;-77.518;2022-11-15T15:58:39;10;8;
65012;PMS5003;51715;39.432;-77.518;2022-11-15T16:01:07;10;10;
65012;PMS5003;51715;39.432;-77.518;2022-11-15T16:03:37;13;12;
65012;PMS5003;51715;39.432;-77.518;2022-11-15T16:06:23;11;11;
65012;PMS5003;51715;39.432;-77.518;2022-11-15T16:09:00;14;12;
65012;PMS5003;51715;39.432;-77.518;2022-11-15T16:11:28;12;11;
65012;PMS5003;51715;39.432;-77.518;2022-11-15T16:13:58;15;13;
65012;PMS5003;51715;39.432;-77.518;2022-11-15T16:16:26;13;12;
65012;PMS5003;51715;39.432;-77.518;2022-11-15T16:18:54;11;11;
65012;PMS5003;51715;39.432;-77.518;2022-11-15T16:21:22;17;15;
65012;PMS5003;51715;39.432;-77.518;2022-11-15T16:23:51;18;14;
65012;PMS5003;51715;39.432;-77.518;2022-11-15T16:26:21;12;12;
65012;PMS5003;51715;39.432;-77.518;2022-11-15T16:28:51;13;13;
65012;PMS5003;51715;39.432;-77.518;2022-11-15T16:31:21;15;15;
65012;PMS5003;51715;39.432;-77.518;2022-11-15T16:33:49;15;13;
65012;PMS5003;51715;39.432;-77.518;2022-11-15T16:36:20;15;10;
65012;PMS5003;51715;39.432;-77.518;2022-11-15T16:38:51;12;12;